AAL2105 KPHX-KMIA
Flight info
| Callsign | AAL2105 |
|---|---|
| Flight time | 3h 47m |
| Altitude | 35000 |
| Route | ECLPS1 PHASE ELP FST/N0456F370 J86 IAH J2 DEFUN FROGZ4 |
| Aircraft | B38M/M-SDE1FGHILORVWXY/HB1 |
Departure
| Time | 2026-05-07 17:20 |
|---|---|
| Airport | Phoenix Sky Harbor International Airport (KPHX) |
Arrival
| Time | 2026-05-07 21:07 |
|---|---|
| Airport | Miami International Airport (KMIA) |
| Time | Latitude | Longitude | Altitude | Speed | Heading |
|---|---|---|---|---|---|
| 2026-05-07 17:10 | 33.43207 | -112.00792 | 1131 ft | 19 kts | 269° |
| 2026-05-07 17:10 | 33.43212 | -112.00957 | 1133 ft | 21 kts | 272° |
| 2026-05-07 17:10 | 33.43216 | -112.01141 | 1132 ft | 23 kts | 270° |
| 2026-05-07 17:11 | 33.43216 | -112.01342 | 1133 ft | 25 kts | 270° |
| 2026-05-07 17:11 | 33.43214 | -112.01532 | 1133 ft | 22 kts | 269° |
| 2026-05-07 17:11 | 33.43212 | -112.01717 | 1132 ft | 23 kts | 269° |
| 2026-05-07 17:11 | 33.43211 | -112.01903 | 1129 ft | 23 kts | 271° |
| 2026-05-07 17:12 | 33.43217 | -112.02098 | 1131 ft | 24 kts | 270° |
| 2026-05-07 17:12 | 33.43216 | -112.02300 | 1133 ft | 25 kts | 270° |
| 2026-05-07 17:12 | 33.43217 | -112.02500 | 1133 ft | 18 kts | 270° |
| 2026-05-07 17:12 | 33.43217 | -112.02521 | 1131 ft | 0 kts | 270° |
| 2026-05-07 17:13 | 33.43217 | -112.02532 | 1132 ft | 3 kts | 270° |
| 2026-05-07 17:13 | 33.43217 | -112.02565 | 1129 ft | 5 kts | 270° |
| 2026-05-07 17:13 | 33.43217 | -112.02589 | 1133 ft | 0 kts | 270° |
| 2026-05-07 17:17 | 33.43217 | -112.02592 | 1133 ft | 3 kts | 270° |
| 2026-05-07 17:17 | 33.43210 | -112.02667 | 1123 ft | 9 kts | 243° |
| 2026-05-07 17:17 | 33.43202 | -112.02679 | 1120 ft | 0 kts | 227° |
| 2026-05-07 17:17 | 33.43202 | -112.02680 | 1120 ft | 0 kts | 227° |
| 2026-05-07 17:18 | 33.43199 | -112.02682 | 1124 ft | 5 kts | 219° |
| 2026-05-07 17:18 | 33.43122 | -112.02679 | 1121 ft | 12 kts | 131° |
| 2026-05-07 17:18 | 33.43111 | -112.02621 | 1120 ft | 0 kts | 92° |
| 2026-05-07 17:19 | 33.43110 | -112.02590 | 1120 ft | 24 kts | 92° |
| 2026-05-07 17:19 | 33.43108 | -112.02085 | 1128 ft | 96 kts | 90° |
| 2026-05-07 17:19 | 33.43107 | -112.01033 | 1130 ft | 155 kts | 89° |
| 2026-05-07 17:20 | 33.43086 | -111.99552 | 1224 ft | 196 kts | 92° |
| 2026-05-07 17:20 | 33.43050 | -111.97810 | 1625 ft | 227 kts | 91° |
| 2026-05-07 17:20 | 33.43149 | -111.95774 | 2039 ft | 261 kts | 83° |
| 2026-05-07 17:20 | 33.43340 | -111.93592 | 2467 ft | 263 kts | 84° |
| 2026-05-07 17:21 | 33.43539 | -111.91382 | 2940 ft | 268 kts | 84° |
| 2026-05-07 17:21 | 33.43714 | -111.89182 | 3406 ft | 266 kts | 89° |
| 2026-05-07 17:21 | 33.43357 | -111.87063 | 3890 ft | 265 kts | 116° |
| 2026-05-07 17:21 | 33.42227 | -111.85290 | 4426 ft | 267 kts | 136° |
| 2026-05-07 17:22 | 33.40865 | -111.83808 | 4917 ft | 268 kts | 137° |
| 2026-05-07 17:22 | 33.39498 | -111.82310 | 5403 ft | 267 kts | 135° |
| 2026-05-07 17:22 | 33.38164 | -111.80762 | 5891 ft | 266 kts | 135° |
| 2026-05-07 17:22 | 33.36847 | -111.79220 | 6393 ft | 265 kts | 135° |
| 2026-05-07 17:23 | 33.35520 | -111.77689 | 6868 ft | 265 kts | 135° |
| 2026-05-07 17:23 | 33.34191 | -111.76162 | 7346 ft | 264 kts | 135° |
| 2026-05-07 17:23 | 33.32871 | -111.74642 | 7841 ft | 264 kts | 135° |
| 2026-05-07 17:23 | 33.31548 | -111.73118 | 8328 ft | 264 kts | 134° |
| 2026-05-07 17:24 | 33.30221 | -111.71590 | 8824 ft | 264 kts | 134° |
| 2026-05-07 17:24 | 33.28897 | -111.70066 | 9326 ft | 264 kts | 134° |
| 2026-05-07 17:24 | 33.27579 | -111.68550 | 9834 ft | 263 kts | 134° |
| 2026-05-07 17:24 | 33.26260 | -111.67033 | 10303 ft | 263 kts | 134° |
| 2026-05-07 17:25 | 33.24943 | -111.65520 | 10767 ft | 262 kts | 134° |
| 2026-05-07 17:25 | 33.23633 | -111.64017 | 11241 ft | 261 kts | 134° |
| 2026-05-07 17:25 | 33.22323 | -111.62513 | 11722 ft | 261 kts | 135° |
| 2026-05-07 17:25 | 33.21012 | -111.61007 | 12132 ft | 264 kts | 135° |
| 2026-05-07 17:26 | 33.19691 | -111.59491 | 12461 ft | 274 kts | 135° |
| 2026-05-07 17:26 | 33.18281 | -111.57872 | 12815 ft | 289 kts | 135° |
| 2026-05-07 17:26 | 33.16792 | -111.56167 | 13190 ft | 304 kts | 135° |
| 2026-05-07 17:26 | 33.15231 | -111.54379 | 13570 ft | 319 kts | 135° |
| 2026-05-07 17:27 | 33.13593 | -111.52504 | 13941 ft | 333 kts | 135° |
| 2026-05-07 17:27 | 33.11888 | -111.50554 | 14293 ft | 346 kts | 135° |
| 2026-05-07 17:27 | 33.10131 | -111.48545 | 14737 ft | 352 kts | 135° |
| 2026-05-07 17:27 | 33.08364 | -111.46526 | 15159 ft | 352 kts | 135° |
| 2026-05-07 17:28 | 33.06685 | -111.44412 | 15590 ft | 350 kts | 125° |
| 2026-05-07 17:28 | 33.05315 | -111.42008 | 16015 ft | 351 kts | 121° |
| 2026-05-07 17:28 | 33.04031 | -111.39543 | 16437 ft | 349 kts | 121° |
| 2026-05-07 17:28 | 33.02725 | -111.37093 | 16863 ft | 349 kts | 122° |
| 2026-05-07 17:29 | 33.01385 | -111.34686 | 17299 ft | 349 kts | 123° |
| 2026-05-07 17:29 | 33.00048 | -111.32278 | 17738 ft | 349 kts | 122° |
| 2026-05-07 17:29 | 32.98725 | -111.29856 | 18185 ft | 349 kts | 122° |
| 2026-05-07 17:29 | 32.97418 | -111.27463 | 18568 ft | 349 kts | 122° |
| 2026-05-07 17:30 | 32.96072 | -111.25013 | 18964 ft | 349 kts | 123° |
| 2026-05-07 17:30 | 32.94739 | -111.22593 | 19358 ft | 349 kts | 123° |
| 2026-05-07 17:30 | 32.93409 | -111.20177 | 19760 ft | 351 kts | 123° |
| 2026-05-07 17:30 | 32.92085 | -111.17768 | 20160 ft | 354 kts | 123° |
| 2026-05-07 17:31 | 32.90728 | -111.15304 | 20578 ft | 357 kts | 123° |
| 2026-05-07 17:31 | 32.89362 | -111.12828 | 21004 ft | 359 kts | 123° |
| 2026-05-07 17:31 | 32.87986 | -111.10331 | 21438 ft | 361 kts | 124° |
| 2026-05-07 17:31 | 32.86602 | -111.07824 | 21872 ft | 363 kts | 124° |
| 2026-05-07 17:32 | 32.85218 | -111.05317 | 22314 ft | 364 kts | 124° |
| 2026-05-07 17:32 | 32.83827 | -111.02802 | 22772 ft | 364 kts | 124° |
| 2026-05-07 17:32 | 32.82435 | -111.00284 | 23222 ft | 364 kts | 124° |
| 2026-05-07 17:32 | 32.81044 | -110.97771 | 23640 ft | 364 kts | 124° |
| 2026-05-07 17:33 | 32.79652 | -110.95255 | 24025 ft | 363 kts | 124° |
| 2026-05-07 17:33 | 32.78263 | -110.92750 | 24408 ft | 362 kts | 124° |
| 2026-05-07 17:33 | 32.76878 | -110.90251 | 24794 ft | 361 kts | 124° |
| 2026-05-07 17:33 | 32.75500 | -110.87768 | 25184 ft | 359 kts | 125° |
| 2026-05-07 17:34 | 32.74131 | -110.85302 | 25581 ft | 357 kts | 125° |
| 2026-05-07 17:34 | 32.72764 | -110.82842 | 25907 ft | 357 kts | 125° |
| 2026-05-07 17:34 | 32.71410 | -110.80408 | 26136 ft | 359 kts | 125° |
| 2026-05-07 17:34 | 32.70030 | -110.77927 | 26378 ft | 361 kts | 125° |
| 2026-05-07 17:35 | 32.68638 | -110.75425 | 26623 ft | 363 kts | 126° |
| 2026-05-07 17:35 | 32.67242 | -110.72919 | 26877 ft | 365 kts | 126° |
| 2026-05-07 17:35 | 32.65839 | -110.70403 | 27128 ft | 366 kts | 126° |
| 2026-05-07 17:35 | 32.64513 | -110.67820 | 27386 ft | 369 kts | 115° |
| 2026-05-07 17:36 | 32.63717 | -110.64910 | 27673 ft | 371 kts | 107° |
| 2026-05-07 17:36 | 32.63104 | -110.61930 | 27941 ft | 372 kts | 105° |
| 2026-05-07 17:36 | 32.62506 | -110.58943 | 28192 ft | 373 kts | 107° |
| 2026-05-07 17:36 | 32.61840 | -110.55969 | 28452 ft | 373 kts | 108° |
| 2026-05-07 17:37 | 32.61156 | -110.52998 | 28727 ft | 373 kts | 108° |
| 2026-05-07 17:37 | 32.60496 | -110.50017 | 28986 ft | 374 kts | 107° |
| 2026-05-07 17:37 | 32.59846 | -110.47025 | 29251 ft | 374 kts | 107° |
| 2026-05-07 17:37 | 32.59188 | -110.44040 | 29529 ft | 374 kts | 108° |
| 2026-05-07 17:38 | 32.58522 | -110.41064 | 29794 ft | 373 kts | 108° |
| 2026-05-07 17:38 | 32.57868 | -110.38130 | 30041 ft | 373 kts | 108° |
| 2026-05-07 17:38 | 32.57204 | -110.35142 | 30187 ft | 376 kts | 108° |
| 2026-05-07 17:38 | 32.56535 | -110.32134 | 30300 ft | 379 kts | 108° |
| 2026-05-07 17:39 | 32.55858 | -110.29096 | 30414 ft | 382 kts | 109° |
| 2026-05-07 17:39 | 32.55174 | -110.26040 | 30540 ft | 385 kts | 109° |
| 2026-05-07 17:39 | 32.54487 | -110.22965 | 30665 ft | 388 kts | 109° |
| 2026-05-07 17:39 | 32.53793 | -110.19863 | 30792 ft | 390 kts | 109° |
| 2026-05-07 17:40 | 32.53095 | -110.16746 | 30914 ft | 393 kts | 109° |
| 2026-05-07 17:40 | 32.52392 | -110.13613 | 31044 ft | 395 kts | 109° |
| 2026-05-07 17:40 | 32.51681 | -110.10449 | 31172 ft | 398 kts | 109° |
| 2026-05-07 17:40 | 32.50967 | -110.07274 | 31299 ft | 400 kts | 109° |
| 2026-05-07 17:41 | 32.50246 | -110.04075 | 31432 ft | 403 kts | 110° |
| 2026-05-07 17:41 | 32.49520 | -110.00859 | 31562 ft | 405 kts | 110° |
| 2026-05-07 17:41 | 32.48789 | -109.97622 | 31694 ft | 408 kts | 110° |
| 2026-05-07 17:41 | 32.48054 | -109.94368 | 31826 ft | 410 kts | 110° |
| 2026-05-07 17:42 | 32.47312 | -109.91090 | 31966 ft | 413 kts | 110° |
| 2026-05-07 17:42 | 32.46564 | -109.87794 | 32086 ft | 416 kts | 110° |
| 2026-05-07 17:42 | 32.45812 | -109.84479 | 32227 ft | 418 kts | 110° |
| 2026-05-07 17:42 | 32.45051 | -109.81135 | 32356 ft | 421 kts | 110° |
| 2026-05-07 17:43 | 32.44297 | -109.77820 | 32494 ft | 424 kts | 110° |
| 2026-05-07 17:43 | 32.43619 | -109.74409 | 32636 ft | 430 kts | 103° |
| 2026-05-07 17:43 | 32.43187 | -109.70893 | 32772 ft | 432 kts | 103° |
| 2026-05-07 17:43 | 32.42748 | -109.67363 | 32906 ft | 435 kts | 104° |
| 2026-05-07 17:44 | 32.42298 | -109.63811 | 33041 ft | 437 kts | 104° |
| 2026-05-07 17:44 | 32.41844 | -109.60246 | 33174 ft | 439 kts | 104° |
| 2026-05-07 17:44 | 32.41389 | -109.56657 | 33304 ft | 441 kts | 104° |
| 2026-05-07 17:44 | 32.40932 | -109.53058 | 33444 ft | 443 kts | 104° |
| 2026-05-07 17:45 | 32.40473 | -109.49450 | 33574 ft | 445 kts | 104° |
| 2026-05-07 17:45 | 32.40009 | -109.45819 | 33709 ft | 447 kts | 104° |
| 2026-05-07 17:45 | 32.39542 | -109.42179 | 33839 ft | 448 kts | 104° |
| 2026-05-07 17:45 | 32.39078 | -109.38564 | 33969 ft | 450 kts | 104° |
| 2026-05-07 17:46 | 32.38608 | -109.34901 | 34084 ft | 452 kts | 104° |
| 2026-05-07 17:46 | 32.38133 | -109.31220 | 34195 ft | 453 kts | 104° |
| 2026-05-07 17:46 | 32.37655 | -109.27525 | 34311 ft | 455 kts | 104° |
| 2026-05-07 17:46 | 32.37175 | -109.23819 | 34421 ft | 456 kts | 104° |
| 2026-05-07 17:47 | 32.36693 | -109.20106 | 34538 ft | 458 kts | 104° |
| 2026-05-07 17:47 | 32.36209 | -109.16389 | 34654 ft | 460 kts | 105° |
| 2026-05-07 17:47 | 32.35575 | -109.12691 | 34773 ft | 458 kts | 108° |
| 2026-05-07 17:47 | 32.34916 | -109.08994 | 34906 ft | 459 kts | 108° |
| 2026-05-07 17:48 | 32.33603 | -109.01554 | 35005 ft | 466 kts | 108° |
| 2026-05-07 17:48 | 32.32245 | -108.94006 | 35056 ft | 473 kts | 108° |
| 2026-05-07 17:49 | 32.30874 | -108.86335 | 35097 ft | 481 kts | 108° |
| 2026-05-07 17:49 | 32.29471 | -108.78557 | 35137 ft | 486 kts | 108° |
| 2026-05-07 17:50 | 32.28062 | -108.70743 | 35134 ft | 485 kts | 109° |
| 2026-05-07 17:50 | 32.26654 | -108.62996 | 35128 ft | 485 kts | 109° |
| 2026-05-07 17:51 | 32.25235 | -108.55197 | 35089 ft | 485 kts | 109° |
| 2026-05-07 17:51 | 32.23808 | -108.47395 | 35043 ft | 486 kts | 109° |
| 2026-05-07 17:52 | 32.22382 | -108.39612 | 34998 ft | 479 kts | 109° |
| 2026-05-07 17:52 | 32.20972 | -108.31962 | 34959 ft | 477 kts | 109° |
| 2026-05-07 17:53 | 32.19551 | -108.24281 | 34942 ft | 480 kts | 109° |
| 2026-05-07 17:53 | 32.18122 | -108.16559 | 34939 ft | 482 kts | 110° |
| 2026-05-07 17:54 | 32.16680 | -108.08825 | 34965 ft | 483 kts | 110° |
| 2026-05-07 17:54 | 32.15233 | -108.01068 | 35006 ft | 484 kts | 110° |
| 2026-05-07 17:55 | 32.13776 | -107.93302 | 35042 ft | 485 kts | 110° |
| 2026-05-07 17:55 | 32.12327 | -107.85591 | 35071 ft | 486 kts | 110° |
| 2026-05-07 17:56 | 32.10853 | -107.77791 | 35083 ft | 487 kts | 110° |
| 2026-05-07 17:56 | 32.09377 | -107.69995 | 35081 ft | 487 kts | 110° |
| 2026-05-07 17:57 | 32.08144 | -107.63508 | 35062 ft | 488 kts | 110° |
| 2026-05-07 17:57 | 32.06395 | -107.54344 | 35037 ft | 493 kts | 111° |
| 2026-05-07 17:58 | 32.05130 | -107.47742 | 35006 ft | 499 kts | 111° |
| 2026-05-07 17:58 | 32.03588 | -107.39710 | 34963 ft | 506 kts | 111° |
| 2026-05-07 17:59 | 32.02017 | -107.31563 | 34960 ft | 513 kts | 111° |
| 2026-05-07 17:59 | 32.00424 | -107.23326 | 34961 ft | 517 kts | 111° |
| 2026-05-07 18:00 | 31.98833 | -107.15124 | 34959 ft | 516 kts | 111° |
| 2026-05-07 18:00 | 31.97223 | -107.06872 | 34976 ft | 517 kts | 111° |
| 2026-05-07 18:01 | 31.95609 | -106.98614 | 35019 ft | 517 kts | 111° |
| 2026-05-07 18:01 | 31.93987 | -106.90356 | 35062 ft | 518 kts | 111° |
| 2026-05-07 18:02 | 31.91538 | -106.77937 | 35126 ft | 520 kts | 111° |
| 2026-05-07 18:03 | 31.89896 | -106.69654 | 35128 ft | 520 kts | 111° |
| 2026-05-07 18:03 | 31.88249 | -106.61368 | 35127 ft | 520 kts | 111° |
| 2026-05-07 18:04 | 31.86594 | -106.53074 | 35107 ft | 521 kts | 111° |
| 2026-05-07 18:04 | 31.84941 | -106.44821 | 35111 ft | 521 kts | 111° |
| 2026-05-07 18:05 | 31.83274 | -106.36531 | 35113 ft | 522 kts | 112° |
| 2026-05-07 18:05 | 31.81594 | -106.28224 | 35109 ft | 521 kts | 113° |
| 2026-05-07 18:06 | 31.79588 | -106.20088 | 35078 ft | 519 kts | 115° |
| 2026-05-07 18:06 | 31.77584 | -106.11936 | 35040 ft | 519 kts | 115° |
| 2026-05-07 18:07 | 31.75559 | -106.03798 | 35001 ft | 519 kts | 115° |
| 2026-05-07 18:07 | 31.73533 | -105.95634 | 34980 ft | 520 kts | 115° |
| 2026-05-07 18:08 | 31.71498 | -105.87483 | 34976 ft | 520 kts | 115° |
| 2026-05-07 18:08 | 31.69462 | -105.79340 | 34981 ft | 520 kts | 115° |
| 2026-05-07 18:09 | 31.67430 | -105.71245 | 34993 ft | 520 kts | 115° |
| 2026-05-07 18:09 | 31.65376 | -105.63085 | 34994 ft | 521 kts | 115° |
| 2026-05-07 18:10 | 31.63320 | -105.54937 | 35002 ft | 521 kts | 116° |
| 2026-05-07 18:10 | 31.61255 | -105.46780 | 34999 ft | 521 kts | 116° |
| 2026-05-07 18:11 | 31.59183 | -105.38621 | 35003 ft | 522 kts | 116° |
| 2026-05-07 18:11 | 31.57105 | -105.30462 | 35005 ft | 522 kts | 116° |
| 2026-05-07 18:12 | 31.55022 | -105.22302 | 35009 ft | 522 kts | 116° |
| 2026-05-07 18:12 | 31.52932 | -105.14146 | 35016 ft | 523 kts | 116° |
| 2026-05-07 18:13 | 31.50834 | -105.05981 | 35032 ft | 523 kts | 116° |
| 2026-05-07 18:13 | 31.48745 | -104.97870 | 35031 ft | 523 kts | 116° |
| 2026-05-07 18:14 | 31.46636 | -104.89712 | 35032 ft | 523 kts | 116° |
| 2026-05-07 18:14 | 31.44517 | -104.81536 | 35052 ft | 524 kts | 116° |
| 2026-05-07 18:15 | 31.42395 | -104.73369 | 35050 ft | 525 kts | 116° |
| 2026-05-07 18:15 | 31.40263 | -104.65188 | 35054 ft | 525 kts | 116° |
| 2026-05-07 18:16 | 31.38122 | -104.57000 | 35056 ft | 525 kts | 116° |
| 2026-05-07 18:16 | 31.35979 | -104.48825 | 35067 ft | 525 kts | 116° |
| 2026-05-07 18:17 | 31.33844 | -104.40706 | 35060 ft | 526 kts | 116° |
| 2026-05-07 18:17 | 31.31689 | -104.32528 | 35072 ft | 526 kts | 116° |
| 2026-05-07 18:18 | 31.29527 | -104.24353 | 35072 ft | 526 kts | 116° |
| 2026-05-07 18:18 | 31.27360 | -104.16181 | 35071 ft | 526 kts | 116° |
| 2026-05-07 18:19 | 31.25184 | -104.08002 | 35071 ft | 527 kts | 116° |
| 2026-05-07 18:19 | 31.23003 | -103.99823 | 35073 ft | 527 kts | 116° |
| 2026-05-07 18:20 | 31.20817 | -103.91648 | 35075 ft | 527 kts | 116° |
| 2026-05-07 18:20 | 31.18627 | -103.83482 | 35076 ft | 527 kts | 116° |
| 2026-05-07 18:21 | 31.16432 | -103.75319 | 35085 ft | 527 kts | 116° |
| 2026-05-07 18:21 | 31.14231 | -103.67160 | 35092 ft | 527 kts | 116° |
| 2026-05-07 18:22 | 31.12039 | -103.59056 | 35094 ft | 527 kts | 116° |
| 2026-05-07 18:22 | 31.09826 | -103.50895 | 35082 ft | 527 kts | 116° |
| 2026-05-07 18:23 | 31.07608 | -103.42743 | 35070 ft | 527 kts | 116° |
| 2026-05-07 18:23 | 31.05388 | -103.34602 | 35049 ft | 527 kts | 116° |
| 2026-05-07 18:24 | 31.03165 | -103.26473 | 35062 ft | 526 kts | 116° |
| 2026-05-07 18:24 | 31.00934 | -103.18340 | 35088 ft | 526 kts | 116° |
| 2026-05-07 18:25 | 30.98700 | -103.10215 | 35114 ft | 526 kts | 116° |
| 2026-05-07 18:25 | 30.96474 | -103.02141 | 35140 ft | 527 kts | 116° |
| 2026-05-07 18:26 | 30.94818 | -102.93750 | 35164 ft | 541 kts | 104° |
| 2026-05-07 18:26 | 30.93959 | -102.85017 | 35164 ft | 542 kts | 104° |
| 2026-05-07 18:27 | 30.93074 | -102.76302 | 35152 ft | 542 kts | 104° |
| 2026-05-07 18:27 | 30.92187 | -102.67583 | 35120 ft | 542 kts | 104° |
| 2026-05-07 18:28 | 30.91302 | -102.58902 | 35095 ft | 542 kts | 104° |
| 2026-05-07 18:28 | 30.90400 | -102.50176 | 35070 ft | 543 kts | 104° |
| 2026-05-07 18:29 | 30.89498 | -102.41455 | 35066 ft | 543 kts | 104° |
| 2026-05-07 18:29 | 30.88585 | -102.32732 | 35066 ft | 543 kts | 104° |
| 2026-05-07 18:30 | 30.87670 | -102.24010 | 35075 ft | 543 kts | 104° |
| 2026-05-07 18:30 | 30.86746 | -102.15281 | 35079 ft | 543 kts | 104° |
| 2026-05-07 18:31 | 30.85818 | -102.06559 | 35085 ft | 543 kts | 104° |
| 2026-05-07 18:31 | 30.84882 | -101.97833 | 35085 ft | 543 kts | 104° |
| 2026-05-07 18:32 | 30.83949 | -101.89173 | 35096 ft | 543 kts | 104° |
| 2026-05-07 18:32 | 30.83001 | -101.80452 | 35092 ft | 543 kts | 104° |
| 2026-05-07 18:33 | 30.82049 | -101.71724 | 35094 ft | 543 kts | 104° |
| 2026-05-07 18:33 | 30.81090 | -101.63007 | 35089 ft | 543 kts | 104° |
| 2026-05-07 18:34 | 30.80128 | -101.54304 | 35113 ft | 542 kts | 104° |
| 2026-05-07 18:34 | 30.79159 | -101.45598 | 35142 ft | 542 kts | 104° |
| 2026-05-07 18:35 | 30.78187 | -101.36916 | 35163 ft | 541 kts | 104° |
| 2026-05-07 18:35 | 30.77216 | -101.28302 | 35191 ft | 540 kts | 105° |
| 2026-05-07 18:36 | 30.76233 | -101.19639 | 35188 ft | 540 kts | 104° |
| 2026-05-07 18:36 | 30.75244 | -101.10964 | 35187 ft | 541 kts | 105° |
| 2026-05-07 18:37 | 30.74251 | -101.02312 | 35169 ft | 540 kts | 104° |
| 2026-05-07 18:37 | 30.73250 | -100.93639 | 35131 ft | 540 kts | 104° |
| 2026-05-07 18:38 | 30.72252 | -100.85038 | 35142 ft | 540 kts | 104° |
| 2026-05-07 18:38 | 30.71241 | -100.76387 | 35153 ft | 540 kts | 104° |
| 2026-05-07 18:39 | 30.70225 | -100.67729 | 35163 ft | 540 kts | 104° |
| 2026-05-07 18:39 | 30.69204 | -100.59091 | 35158 ft | 539 kts | 104° |
| 2026-05-07 18:40 | 30.68178 | -100.50455 | 35160 ft | 539 kts | 104° |
| 2026-05-07 18:40 | 30.67149 | -100.41845 | 35143 ft | 538 kts | 104° |
| 2026-05-07 18:41 | 30.66113 | -100.33226 | 35123 ft | 538 kts | 104° |
| 2026-05-07 18:41 | 30.65072 | -100.24616 | 35100 ft | 539 kts | 104° |
| 2026-05-07 18:42 | 30.64031 | -100.16053 | 35100 ft | 539 kts | 104° |
| 2026-05-07 18:42 | 30.62970 | -100.07371 | 35103 ft | 540 kts | 104° |
| 2026-05-07 18:43 | 30.61915 | -99.98787 | 35109 ft | 540 kts | 104° |
| 2026-05-07 18:43 | 30.60847 | -99.90152 | 35116 ft | 541 kts | 103° |
| 2026-05-07 18:44 | 30.59772 | -99.81501 | 35122 ft | 542 kts | 103° |
| 2026-05-07 18:44 | 30.58683 | -99.72850 | 35123 ft | 542 kts | 103° |
| 2026-05-07 18:45 | 30.57586 | -99.64179 | 35122 ft | 543 kts | 103° |
| 2026-05-07 18:45 | 30.56484 | -99.55512 | 35116 ft | 543 kts | 103° |
| 2026-05-07 18:46 | 30.55373 | -99.46828 | 35106 ft | 544 kts | 103° |
| 2026-05-07 18:46 | 30.54257 | -99.38145 | 35100 ft | 544 kts | 103° |
| 2026-05-07 18:47 | 30.53136 | -99.29471 | 35097 ft | 544 kts | 104° |
| 2026-05-07 18:47 | 30.52015 | -99.20845 | 35099 ft | 544 kts | 104° |
| 2026-05-07 18:48 | 30.50880 | -99.12159 | 35100 ft | 545 kts | 104° |
| 2026-05-07 18:48 | 30.49924 | -99.04878 | 35101 ft | 545 kts | 104° |
| 2026-05-07 18:49 | 30.48778 | -98.96192 | 35099 ft | 546 kts | 104° |
| 2026-05-07 18:49 | 30.47631 | -98.87541 | 35092 ft | 546 kts | 104° |
| 2026-05-07 18:50 | 30.46470 | -98.78830 | 35103 ft | 547 kts | 104° |
| 2026-05-07 18:50 | 30.45302 | -98.70111 | 35106 ft | 547 kts | 104° |
| 2026-05-07 18:51 | 30.44128 | -98.61397 | 35116 ft | 547 kts | 104° |
| 2026-05-07 18:51 | 30.42948 | -98.52682 | 35121 ft | 547 kts | 104° |
| 2026-05-07 18:52 | 30.41761 | -98.43963 | 35137 ft | 547 kts | 104° |
| 2026-05-07 18:52 | 30.40570 | -98.35256 | 35129 ft | 547 kts | 104° |
| 2026-05-07 18:53 | 30.39381 | -98.26604 | 35125 ft | 547 kts | 104° |
| 2026-05-07 18:53 | 30.38177 | -98.17897 | 35117 ft | 547 kts | 104° |
| 2026-05-07 18:54 | 30.36968 | -98.09189 | 35120 ft | 547 kts | 104° |
| 2026-05-07 18:54 | 30.35752 | -98.00482 | 35122 ft | 548 kts | 105° |
| 2026-05-07 18:55 | 30.34532 | -97.91780 | 35119 ft | 548 kts | 105° |
| 2026-05-07 18:55 | 30.33312 | -97.83130 | 35114 ft | 548 kts | 105° |
| 2026-05-07 18:56 | 30.32078 | -97.74417 | 35092 ft | 548 kts | 105° |
| 2026-05-07 18:56 | 30.30833 | -97.65679 | 35094 ft | 549 kts | 105° |
| 2026-05-07 18:57 | 30.29587 | -97.56964 | 35090 ft | 550 kts | 105° |
| 2026-05-07 18:57 | 30.28331 | -97.48232 | 35088 ft | 550 kts | 105° |
| 2026-05-07 18:58 | 30.27077 | -97.39551 | 35079 ft | 550 kts | 105° |
| 2026-05-07 18:58 | 30.25811 | -97.30831 | 35068 ft | 550 kts | 105° |
| 2026-05-07 18:59 | 30.24536 | -97.22089 | 35070 ft | 550 kts | 105° |
| 2026-05-07 18:59 | 30.23256 | -97.13360 | 35087 ft | 551 kts | 105° |
| 2026-05-07 19:00 | 30.21969 | -97.04617 | 35111 ft | 552 kts | 105° |
| 2026-05-07 19:00 | 30.20674 | -96.95877 | 35110 ft | 552 kts | 105° |
| 2026-05-07 19:01 | 30.19372 | -96.87119 | 35108 ft | 552 kts | 105° |
| 2026-05-07 19:01 | 30.18066 | -96.78379 | 35058 ft | 552 kts | 105° |
| 2026-05-07 19:02 | 30.16751 | -96.69628 | 35003 ft | 553 kts | 105° |
| 2026-05-07 19:02 | 30.15439 | -96.60923 | 34935 ft | 553 kts | 105° |
| 2026-05-07 19:03 | 30.14113 | -96.52175 | 34901 ft | 553 kts | 105° |
| 2026-05-07 19:03 | 30.12779 | -96.43417 | 34893 ft | 552 kts | 105° |
| 2026-05-07 19:04 | 30.11441 | -96.34669 | 34881 ft | 552 kts | 105° |
| 2026-05-07 19:04 | 30.10100 | -96.25942 | 34876 ft | 552 kts | 105° |
| 2026-05-07 19:05 | 30.08754 | -96.17217 | 34876 ft | 551 kts | 105° |
| 2026-05-07 19:05 | 30.07403 | -96.08509 | 34910 ft | 551 kts | 105° |
| 2026-05-07 19:06 | 30.06057 | -95.99862 | 34951 ft | 551 kts | 105° |
| 2026-05-07 19:06 | 30.04010 | -95.86797 | 34989 ft | 550 kts | 105° |
| 2026-05-07 19:07 | 30.02642 | -95.78111 | 35019 ft | 550 kts | 105° |
| 2026-05-07 19:07 | 30.01267 | -95.69421 | 35048 ft | 550 kts | 106° |
| 2026-05-07 19:08 | 29.99886 | -95.60729 | 35053 ft | 550 kts | 106° |
| 2026-05-07 19:08 | 29.98509 | -95.52102 | 35054 ft | 550 kts | 106° |
| 2026-05-07 19:09 | 29.97117 | -95.43424 | 35047 ft | 550 kts | 106° |
| 2026-05-07 19:09 | 29.95921 | -95.34706 | 35060 ft | 556 kts | 96° |
| 2026-05-07 19:10 | 29.96472 | -95.25751 | 35059 ft | 562 kts | 86° |
| 2026-05-07 19:10 | 29.97315 | -95.16777 | 35061 ft | 562 kts | 87° |
| 2026-05-07 19:11 | 29.98091 | -95.07814 | 35060 ft | 562 kts | 86° |
| 2026-05-07 19:11 | 29.98897 | -94.98902 | 35062 ft | 562 kts | 87° |
| 2026-05-07 19:12 | 29.99675 | -94.89942 | 35056 ft | 561 kts | 87° |
| 2026-05-07 19:12 | 30.00461 | -94.80998 | 35056 ft | 561 kts | 87° |
| 2026-05-07 19:13 | 30.01236 | -94.72017 | 35053 ft | 561 kts | 87° |
| 2026-05-07 19:13 | 30.02007 | -94.63044 | 35047 ft | 561 kts | 87° |
| 2026-05-07 19:14 | 30.02770 | -94.54090 | 35048 ft | 560 kts | 87° |
| 2026-05-07 19:14 | 30.03525 | -94.45144 | 35042 ft | 561 kts | 87° |
| 2026-05-07 19:15 | 30.04276 | -94.36189 | 35042 ft | 560 kts | 87° |
| 2026-05-07 19:15 | 30.05016 | -94.27282 | 35048 ft | 561 kts | 87° |
| 2026-05-07 19:16 | 30.05755 | -94.18323 | 35044 ft | 561 kts | 87° |
| 2026-05-07 19:16 | 30.06486 | -94.09364 | 35044 ft | 561 kts | 87° |
| 2026-05-07 19:17 | 30.07213 | -94.00405 | 35030 ft | 561 kts | 87° |
| 2026-05-07 19:17 | 30.07933 | -93.91436 | 35061 ft | 561 kts | 87° |
| 2026-05-07 19:18 | 30.08648 | -93.82474 | 35063 ft | 561 kts | 87° |
| 2026-05-07 19:18 | 30.09358 | -93.73478 | 35062 ft | 561 kts | 87° |
| 2026-05-07 19:19 | 30.10061 | -93.64499 | 35061 ft | 562 kts | 87° |
| 2026-05-07 19:19 | 30.10757 | -93.55518 | 35050 ft | 561 kts | 87° |
| 2026-05-07 19:20 | 30.11449 | -93.46527 | 35052 ft | 562 kts | 87° |
| 2026-05-07 19:20 | 30.12130 | -93.37590 | 35053 ft | 562 kts | 87° |
| 2026-05-07 19:21 | 30.12805 | -93.28642 | 35041 ft | 562 kts | 87° |
| 2026-05-07 19:21 | 30.13481 | -93.19613 | 35041 ft | 561 kts | 87° |
| 2026-05-07 19:22 | 30.14190 | -93.10623 | 35053 ft | 562 kts | 83° |
| 2026-05-07 19:22 | 30.15869 | -93.01768 | 35064 ft | 564 kts | 77° |
| 2026-05-07 19:23 | 30.17628 | -92.92943 | 35062 ft | 564 kts | 78° |
| 2026-05-07 19:23 | 30.19330 | -92.84101 | 35062 ft | 564 kts | 78° |
| 2026-05-07 19:24 | 30.21073 | -92.75255 | 35057 ft | 564 kts | 78° |
| 2026-05-07 19:24 | 30.22763 | -92.66462 | 35058 ft | 564 kts | 78° |
| 2026-05-07 19:25 | 30.24484 | -92.57606 | 35057 ft | 564 kts | 78° |
| 2026-05-07 19:25 | 30.26185 | -92.48735 | 35057 ft | 565 kts | 78° |
| 2026-05-07 19:26 | 30.27889 | -92.39868 | 35058 ft | 565 kts | 78° |
| 2026-05-07 19:26 | 30.29581 | -92.30993 | 35057 ft | 565 kts | 78° |
| 2026-05-07 19:27 | 30.31275 | -92.22097 | 35054 ft | 565 kts | 78° |
| 2026-05-07 19:27 | 30.32958 | -92.13214 | 35047 ft | 566 kts | 78° |
| 2026-05-07 19:28 | 30.34637 | -92.04315 | 35047 ft | 566 kts | 78° |
| 2026-05-07 19:28 | 30.36312 | -91.95410 | 35046 ft | 566 kts | 79° |
| 2026-05-07 19:29 | 30.37978 | -91.86512 | 35055 ft | 567 kts | 79° |
| 2026-05-07 19:29 | 30.39645 | -91.77572 | 35050 ft | 567 kts | 79° |
| 2026-05-07 19:30 | 30.41304 | -91.68641 | 35054 ft | 567 kts | 79° |
| 2026-05-07 19:30 | 30.42957 | -91.59713 | 35049 ft | 567 kts | 79° |
| 2026-05-07 19:31 | 30.44592 | -91.50836 | 35050 ft | 567 kts | 79° |
| 2026-05-07 19:31 | 30.46232 | -91.41901 | 35048 ft | 567 kts | 79° |
| 2026-05-07 19:32 | 30.47866 | -91.32964 | 35058 ft | 567 kts | 79° |
| 2026-05-07 19:32 | 30.49061 | -91.23953 | 35050 ft | 565 kts | 86° |
| 2026-05-07 19:33 | 30.49839 | -91.14881 | 35054 ft | 566 kts | 85° |
| 2026-05-07 19:33 | 30.50714 | -91.05810 | 35052 ft | 566 kts | 85° |
| 2026-05-07 19:34 | 30.51516 | -90.96770 | 35049 ft | 566 kts | 86° |
| 2026-05-07 19:34 | 30.52352 | -90.87684 | 35042 ft | 566 kts | 86° |
| 2026-05-07 19:35 | 30.53162 | -90.78602 | 35037 ft | 566 kts | 86° |
| 2026-05-07 19:35 | 30.53974 | -90.69530 | 35038 ft | 566 kts | 86° |
| 2026-05-07 19:36 | 30.54781 | -90.60406 | 35037 ft | 567 kts | 86° |
| 2026-05-07 19:36 | 30.55443 | -90.52851 | 35038 ft | 567 kts | 86° |
| 2026-05-07 19:37 | 30.56240 | -90.43735 | 35036 ft | 567 kts | 86° |
| 2026-05-07 19:37 | 30.57025 | -90.34629 | 35038 ft | 567 kts | 86° |
| 2026-05-07 19:38 | 30.57808 | -90.25513 | 35034 ft | 568 kts | 86° |
| 2026-05-07 19:38 | 30.58583 | -90.16389 | 35031 ft | 568 kts | 86° |
| 2026-05-07 19:39 | 30.59353 | -90.07273 | 35035 ft | 568 kts | 86° |
| 2026-05-07 19:39 | 30.60112 | -89.98196 | 35036 ft | 568 kts | 86° |
| 2026-05-07 19:40 | 30.60868 | -89.89079 | 35033 ft | 568 kts | 86° |
| 2026-05-07 19:40 | 30.61615 | -89.79989 | 35011 ft | 567 kts | 86° |
| 2026-05-07 19:41 | 30.62361 | -89.70836 | 35008 ft | 567 kts | 86° |
| 2026-05-07 19:41 | 30.63098 | -89.61709 | 35005 ft | 567 kts | 86° |
| 2026-05-07 19:42 | 30.63828 | -89.52590 | 35010 ft | 567 kts | 86° |
| 2026-05-07 19:42 | 30.64552 | -89.43469 | 35014 ft | 567 kts | 86° |
| 2026-05-07 19:43 | 30.65269 | -89.34362 | 35015 ft | 566 kts | 86° |
| 2026-05-07 19:43 | 30.65980 | -89.25233 | 35013 ft | 567 kts | 86° |
| 2026-05-07 19:44 | 30.66684 | -89.16121 | 35010 ft | 567 kts | 86° |
| 2026-05-07 19:44 | 30.67382 | -89.06997 | 35007 ft | 567 kts | 86° |
| 2026-05-07 19:45 | 30.68069 | -88.97943 | 35006 ft | 566 kts | 86° |
| 2026-05-07 19:45 | 30.68752 | -88.88847 | 35004 ft | 565 kts | 86° |
| 2026-05-07 19:46 | 30.69430 | -88.79737 | 35009 ft | 565 kts | 86° |
| 2026-05-07 19:46 | 30.70101 | -88.70633 | 35016 ft | 565 kts | 86° |
| 2026-05-07 19:47 | 30.70764 | -88.61538 | 35016 ft | 565 kts | 86° |
| 2026-05-07 19:47 | 30.71422 | -88.52438 | 35028 ft | 565 kts | 86° |
| 2026-05-07 19:48 | 30.72073 | -88.43350 | 35025 ft | 564 kts | 86° |
| 2026-05-07 19:48 | 30.72712 | -88.34320 | 35021 ft | 564 kts | 86° |
| 2026-05-07 19:49 | 30.73300 | -88.25231 | 35022 ft | 564 kts | 87° |
| 2026-05-07 19:49 | 30.73893 | -88.16145 | 35022 ft | 563 kts | 87° |
| 2026-05-07 19:50 | 30.74478 | -88.07047 | 35034 ft | 563 kts | 87° |
| 2026-05-07 19:50 | 30.75053 | -87.97971 | 35030 ft | 563 kts | 87° |
| 2026-05-07 19:51 | 30.75627 | -87.88879 | 35037 ft | 563 kts | 87° |
| 2026-05-07 19:51 | 30.76189 | -87.79803 | 35032 ft | 563 kts | 87° |
| 2026-05-07 19:52 | 30.76748 | -87.70728 | 35020 ft | 562 kts | 87° |
| 2026-05-07 19:52 | 30.77293 | -87.61732 | 35020 ft | 561 kts | 87° |
| 2026-05-07 19:53 | 30.77838 | -87.52673 | 35016 ft | 561 kts | 87° |
| 2026-05-07 19:53 | 30.78375 | -87.43621 | 35011 ft | 560 kts | 87° |
| 2026-05-07 19:54 | 30.78905 | -87.34588 | 35007 ft | 560 kts | 87° |
| 2026-05-07 19:54 | 30.79428 | -87.25554 | 35010 ft | 560 kts | 87° |
| 2026-05-07 19:55 | 30.79947 | -87.16505 | 35004 ft | 560 kts | 87° |
| 2026-05-07 19:55 | 30.80458 | -87.07454 | 35005 ft | 560 kts | 87° |
| 2026-05-07 19:56 | 30.80961 | -86.98461 | 35005 ft | 560 kts | 87° |
| 2026-05-07 19:56 | 30.81458 | -86.89429 | 35002 ft | 560 kts | 87° |
| 2026-05-07 19:57 | 30.81951 | -86.80377 | 35000 ft | 560 kts | 87° |
| 2026-05-07 19:57 | 30.82437 | -86.71330 | 35020 ft | 560 kts | 87° |
| 2026-05-07 19:58 | 30.82538 | -86.62272 | 35022 ft | 560 kts | 94° |
| 2026-05-07 19:58 | 30.82300 | -86.53241 | 35027 ft | 559 kts | 93° |
| 2026-05-07 19:59 | 30.82143 | -86.44176 | 35018 ft | 558 kts | 93° |
| 2026-05-07 19:59 | 30.81926 | -86.35205 | 35002 ft | 558 kts | 93° |
| 2026-05-07 20:00 | 30.81734 | -86.26181 | 34993 ft | 558 kts | 93° |
| 2026-05-07 20:00 | 30.81518 | -86.17151 | 34988 ft | 558 kts | 93° |
| 2026-05-07 20:01 | 30.81300 | -86.08118 | 34976 ft | 558 kts | 93° |
| 2026-05-07 20:01 | 30.81054 | -85.99098 | 34971 ft | 558 kts | 93° |
| 2026-05-07 20:02 | 30.80815 | -85.90075 | 34972 ft | 558 kts | 93° |
| 2026-05-07 20:02 | 30.80564 | -85.81112 | 34979 ft | 557 kts | 93° |
| 2026-05-07 20:03 | 30.80308 | -85.72112 | 34975 ft | 557 kts | 93° |
| 2026-05-07 20:03 | 30.80046 | -85.63112 | 34976 ft | 556 kts | 93° |
| 2026-05-07 20:04 | 30.79778 | -85.54116 | 34977 ft | 555 kts | 93° |
| 2026-05-07 20:04 | 30.79504 | -85.45142 | 34976 ft | 555 kts | 94° |
| 2026-05-07 20:05 | 30.79224 | -85.36182 | 34981 ft | 554 kts | 94° |
| 2026-05-07 20:05 | 30.78939 | -85.27236 | 34983 ft | 553 kts | 94° |
| 2026-05-07 20:06 | 30.78649 | -85.18343 | 34983 ft | 553 kts | 94° |
| 2026-05-07 20:06 | 30.78352 | -85.09398 | 34982 ft | 553 kts | 94° |
| 2026-05-07 20:07 | 30.78048 | -85.00453 | 34984 ft | 553 kts | 94° |
| 2026-05-07 20:07 | 30.77738 | -84.91518 | 34988 ft | 553 kts | 94° |
| 2026-05-07 20:08 | 30.76408 | -84.82804 | 35010 ft | 545 kts | 115° |
| 2026-05-07 20:08 | 30.72875 | -84.75136 | 35015 ft | 537 kts | 126° |
| 2026-05-07 20:09 | 30.68977 | -84.67724 | 35013 ft | 537 kts | 126° |
| 2026-05-07 20:10 | 30.63164 | -84.56584 | 35017 ft | 537 kts | 126° |
| 2026-05-07 20:10 | 30.59276 | -84.49175 | 35020 ft | 538 kts | 126° |
| 2026-05-07 20:11 | 30.55402 | -84.41791 | 35014 ft | 539 kts | 126° |
| 2026-05-07 20:11 | 30.51500 | -84.34383 | 35009 ft | 539 kts | 126° |
| 2026-05-07 20:12 | 30.47592 | -84.26967 | 35005 ft | 539 kts | 126° |
| 2026-05-07 20:12 | 30.43668 | -84.19541 | 35002 ft | 540 kts | 126° |
| 2026-05-07 20:13 | 30.39723 | -84.12123 | 35000 ft | 539 kts | 129° |
| 2026-05-07 20:13 | 30.37390 | -84.08779 | 35009 ft | 530 kts | 141° |
| 2026-05-07 20:13 | 30.34642 | -84.05995 | 35013 ft | 521 kts | 151° |
| 2026-05-07 20:14 | 30.28504 | -84.01729 | 35007 ft | 514 kts | 158° |
| 2026-05-07 20:14 | 30.22283 | -83.97622 | 35005 ft | 516 kts | 158° |
| 2026-05-07 20:15 | 30.16062 | -83.93486 | 34996 ft | 515 kts | 158° |
| 2026-05-07 20:15 | 30.09836 | -83.89378 | 35007 ft | 514 kts | 158° |
| 2026-05-07 20:16 | 30.03666 | -83.85297 | 35011 ft | 514 kts | 158° |
| 2026-05-07 20:16 | 29.97478 | -83.81262 | 35002 ft | 504 kts | 159° |
| 2026-05-07 20:17 | 29.91478 | -83.77282 | 35003 ft | 491 kts | 159° |
| 2026-05-07 20:17 | 29.85622 | -83.73446 | 35013 ft | 477 kts | 159° |
| 2026-05-07 20:18 | 29.79917 | -83.69694 | 35009 ft | 467 kts | 159° |
| 2026-05-07 20:18 | 29.74336 | -83.66035 | 35009 ft | 456 kts | 160° |
| 2026-05-07 20:19 | 29.68875 | -83.62459 | 35004 ft | 447 kts | 160° |
| 2026-05-07 20:19 | 29.63567 | -83.58985 | 35003 ft | 437 kts | 160° |
| 2026-05-07 20:20 | 29.58331 | -83.55564 | 35011 ft | 428 kts | 160° |
| 2026-05-07 20:20 | 29.53204 | -83.52216 | 35010 ft | 419 kts | 160° |
| 2026-05-07 20:21 | 29.48189 | -83.48947 | 35013 ft | 410 kts | 160° |
| 2026-05-07 20:21 | 29.43288 | -83.45755 | 35012 ft | 400 kts | 161° |
| 2026-05-07 20:22 | 29.38512 | -83.42647 | 35005 ft | 389 kts | 161° |
| 2026-05-07 20:22 | 29.33851 | -83.39676 | 35012 ft | 375 kts | 164° |
| 2026-05-07 20:22 | 29.31673 | -83.38011 | 35022 ft | 382 kts | 147° |
| 2026-05-07 20:23 | 29.29760 | -83.35899 | 35011 ft | 379 kts | 143° |
| 2026-05-07 20:23 | 29.25971 | -83.31953 | 34926 ft | 357 kts | 156° |
| 2026-05-07 20:23 | 29.23924 | -83.30381 | 34757 ft | 352 kts | 158° |
| 2026-05-07 20:24 | 29.21902 | -83.28779 | 34526 ft | 356 kts | 154° |
| 2026-05-07 20:24 | 29.19922 | -83.27050 | 34282 ft | 359 kts | 153° |
| 2026-05-07 20:24 | 29.17935 | -83.25306 | 34060 ft | 359 kts | 154° |
| 2026-05-07 20:24 | 29.15921 | -83.23610 | 33815 ft | 360 kts | 154° |
| 2026-05-07 20:25 | 29.13898 | -83.21923 | 33568 ft | 362 kts | 154° |
| 2026-05-07 20:25 | 29.11870 | -83.20205 | 33330 ft | 364 kts | 153° |
| 2026-05-07 20:25 | 29.10521 | -83.19055 | 33172 ft | 365 kts | 153° |
| 2026-05-07 20:25 | 29.07806 | -83.16752 | 32869 ft | 368 kts | 153° |
| 2026-05-07 20:26 | 29.05740 | -83.15010 | 32635 ft | 370 kts | 153° |
| 2026-05-07 20:26 | 29.03665 | -83.13257 | 32418 ft | 373 kts | 153° |
| 2026-05-07 20:26 | 29.01572 | -83.11487 | 32191 ft | 375 kts | 153° |
| 2026-05-07 20:26 | 29.00180 | -83.10310 | 32046 ft | 377 kts | 153° |
| 2026-05-07 20:27 | 28.98059 | -83.08520 | 31831 ft | 380 kts | 153° |
| 2026-05-07 20:27 | 28.95916 | -83.06713 | 31613 ft | 384 kts | 153° |
| 2026-05-07 20:27 | 28.93761 | -83.04895 | 31403 ft | 387 kts | 152° |
| 2026-05-07 20:27 | 28.91587 | -83.03062 | 31189 ft | 391 kts | 152° |
| 2026-05-07 20:28 | 28.89392 | -83.01213 | 31050 ft | 391 kts | 152° |
| 2026-05-07 20:28 | 28.85049 | -82.97551 | 31044 ft | 384 kts | 152° |
| 2026-05-07 20:29 | 28.80774 | -82.93957 | 31022 ft | 378 kts | 152° |
| 2026-05-07 20:29 | 28.76593 | -82.90442 | 31028 ft | 369 kts | 153° |
| 2026-05-07 20:30 | 28.72511 | -82.87016 | 31035 ft | 359 kts | 153° |
| 2026-05-07 20:30 | 28.68571 | -82.83710 | 31026 ft | 348 kts | 153° |
| 2026-05-07 20:31 | 28.64742 | -82.80502 | 31027 ft | 335 kts | 154° |
| 2026-05-07 20:31 | 28.62879 | -82.78943 | 30899 ft | 332 kts | 154° |
| 2026-05-07 20:31 | 28.61016 | -82.77390 | 30679 ft | 333 kts | 153° |
| 2026-05-07 20:31 | 28.59144 | -82.75823 | 30468 ft | 334 kts | 153° |
| 2026-05-07 20:32 | 28.57270 | -82.74255 | 30272 ft | 334 kts | 153° |
| 2026-05-07 20:32 | 28.55391 | -82.72686 | 30081 ft | 335 kts | 153° |
| 2026-05-07 20:32 | 28.53511 | -82.71118 | 29868 ft | 335 kts | 153° |
| 2026-05-07 20:32 | 28.51628 | -82.69535 | 29667 ft | 341 kts | 149° |
| 2026-05-07 20:33 | 28.49705 | -82.67871 | 29539 ft | 353 kts | 152° |
| 2026-05-07 20:33 | 28.47674 | -82.66209 | 29421 ft | 366 kts | 152° |
| 2026-05-07 20:33 | 28.45567 | -82.64481 | 29310 ft | 380 kts | 150° |
| 2026-05-07 20:33 | 28.43428 | -82.62688 | 29191 ft | 394 kts | 150° |
| 2026-05-07 20:34 | 28.41187 | -82.60806 | 29069 ft | 408 kts | 150° |
| 2026-05-07 20:34 | 28.38857 | -82.58869 | 28943 ft | 422 kts | 150° |
| 2026-05-07 20:34 | 28.36444 | -82.56872 | 28812 ft | 436 kts | 150° |
| 2026-05-07 20:34 | 28.33860 | -82.54995 | 28680 ft | 447 kts | 156° |
| 2026-05-07 20:35 | 28.31102 | -82.53249 | 28543 ft | 460 kts | 156° |
| 2026-05-07 20:35 | 28.28292 | -82.51378 | 28395 ft | 477 kts | 153° |
| 2026-05-07 20:35 | 28.25453 | -82.49309 | 28244 ft | 490 kts | 152° |
| 2026-05-07 20:35 | 28.22562 | -82.47218 | 28070 ft | 493 kts | 153° |
| 2026-05-07 20:36 | 28.19644 | -82.45219 | 27882 ft | 488 kts | 154° |
| 2026-05-07 20:36 | 28.16737 | -82.43245 | 27691 ft | 487 kts | 154° |
| 2026-05-07 20:36 | 28.13852 | -82.41228 | 27496 ft | 486 kts | 153° |
| 2026-05-07 20:36 | 28.10991 | -82.39207 | 27301 ft | 484 kts | 153° |
| 2026-05-07 20:37 | 28.08126 | -82.37216 | 27104 ft | 482 kts | 154° |
| 2026-05-07 20:37 | 28.05272 | -82.35252 | 27030 ft | 479 kts | 154° |
| 2026-05-07 20:37 | 28.02430 | -82.33283 | 27033 ft | 479 kts | 153° |
| 2026-05-07 20:37 | 27.99588 | -82.31304 | 27036 ft | 481 kts | 153° |
| 2026-05-07 20:38 | 27.96735 | -82.29321 | 27033 ft | 481 kts | 153° |
| 2026-05-07 20:38 | 27.93880 | -82.27347 | 27035 ft | 481 kts | 153° |
| 2026-05-07 20:38 | 27.91026 | -82.25374 | 27046 ft | 481 kts | 153° |
| 2026-05-07 20:38 | 27.88169 | -82.23396 | 27046 ft | 481 kts | 153° |
| 2026-05-07 20:39 | 27.85346 | -82.21443 | 27048 ft | 482 kts | 153° |
| 2026-05-07 20:39 | 27.82483 | -82.19464 | 27050 ft | 482 kts | 153° |
| 2026-05-07 20:39 | 27.79624 | -82.17491 | 27050 ft | 482 kts | 153° |
| 2026-05-07 20:39 | 27.76767 | -82.15519 | 27051 ft | 482 kts | 153° |
| 2026-05-07 20:40 | 27.73908 | -82.13547 | 27050 ft | 481 kts | 153° |
| 2026-05-07 20:40 | 27.71046 | -82.11574 | 27051 ft | 483 kts | 153° |
| 2026-05-07 20:40 | 27.68150 | -82.09583 | 27058 ft | 493 kts | 153° |
| 2026-05-07 20:40 | 27.65155 | -82.07523 | 27062 ft | 502 kts | 153° |
| 2026-05-07 20:41 | 27.62184 | -82.05477 | 27057 ft | 511 kts | 153° |
| 2026-05-07 20:41 | 27.59127 | -82.03372 | 27062 ft | 519 kts | 153° |
| 2026-05-07 20:41 | 27.56027 | -82.01243 | 27058 ft | 526 kts | 153° |
| 2026-05-07 20:41 | 27.52881 | -81.99084 | 27064 ft | 532 kts | 153° |
| 2026-05-07 20:42 | 27.49701 | -81.96902 | 27062 ft | 538 kts | 153° |
| 2026-05-07 20:42 | 27.46491 | -81.94698 | 27060 ft | 540 kts | 153° |
| 2026-05-07 20:42 | 27.43303 | -81.92510 | 27055 ft | 532 kts | 153° |
| 2026-05-07 20:42 | 27.40160 | -81.90357 | 27048 ft | 528 kts | 153° |
| 2026-05-07 20:43 | 27.37020 | -81.88213 | 27047 ft | 527 kts | 153° |
| 2026-05-07 20:43 | 27.33889 | -81.86074 | 27045 ft | 527 kts | 153° |
| 2026-05-07 20:43 | 27.30750 | -81.83926 | 27044 ft | 527 kts | 153° |
| 2026-05-07 20:43 | 27.27621 | -81.81788 | 27042 ft | 527 kts | 153° |
| 2026-05-07 20:44 | 27.24488 | -81.79651 | 27043 ft | 527 kts | 153° |
| 2026-05-07 20:44 | 27.21356 | -81.77516 | 27041 ft | 527 kts | 153° |
| 2026-05-07 20:44 | 27.18221 | -81.75379 | 27037 ft | 527 kts | 153° |
| 2026-05-07 20:44 | 27.15083 | -81.73241 | 27036 ft | 528 kts | 153° |
| 2026-05-07 20:45 | 27.11966 | -81.71092 | 27033 ft | 519 kts | 152° |
| 2026-05-07 20:45 | 27.08924 | -81.68991 | 27033 ft | 507 kts | 152° |
| 2026-05-07 20:45 | 27.05932 | -81.66972 | 27025 ft | 498 kts | 152° |
| 2026-05-07 20:45 | 27.02984 | -81.64983 | 27029 ft | 492 kts | 152° |
| 2026-05-07 20:46 | 27.00076 | -81.63005 | 27024 ft | 486 kts | 152° |
| 2026-05-07 20:46 | 26.97242 | -81.61074 | 27025 ft | 480 kts | 152° |
| 2026-05-07 20:46 | 26.94392 | -81.59142 | 27021 ft | 475 kts | 152° |
| 2026-05-07 20:46 | 26.91573 | -81.57236 | 27024 ft | 471 kts | 152° |
| 2026-05-07 20:47 | 26.88784 | -81.55348 | 27023 ft | 467 kts | 152° |
| 2026-05-07 20:47 | 26.86015 | -81.53471 | 26953 ft | 465 kts | 152° |
| 2026-05-07 20:47 | 26.83248 | -81.51598 | 26827 ft | 465 kts | 152° |
| 2026-05-07 20:47 | 26.80477 | -81.49727 | 26695 ft | 464 kts | 152° |
| 2026-05-07 20:48 | 26.77711 | -81.47858 | 26569 ft | 464 kts | 152° |
| 2026-05-07 20:48 | 26.74948 | -81.45991 | 26444 ft | 464 kts | 152° |
| 2026-05-07 20:48 | 26.72185 | -81.44125 | 26322 ft | 463 kts | 152° |
| 2026-05-07 20:48 | 26.69428 | -81.42266 | 26196 ft | 463 kts | 152° |
| 2026-05-07 20:49 | 26.66669 | -81.40406 | 26075 ft | 463 kts | 152° |
| 2026-05-07 20:49 | 26.63904 | -81.38554 | 25959 ft | 468 kts | 153° |
| 2026-05-07 20:49 | 26.61057 | -81.36694 | 25859 ft | 476 kts | 153° |
| 2026-05-07 20:49 | 26.58238 | -81.34789 | 25748 ft | 470 kts | 152° |
| 2026-05-07 20:50 | 26.55456 | -81.32883 | 25570 ft | 470 kts | 152° |
| 2026-05-07 20:50 | 26.52722 | -81.31041 | 25242 ft | 459 kts | 153° |
| 2026-05-07 20:50 | 26.50000 | -81.29230 | 24782 ft | 451 kts | 153° |
| 2026-05-07 20:50 | 26.47316 | -81.27435 | 24167 ft | 448 kts | 152° |
| 2026-05-07 20:51 | 26.44648 | -81.25638 | 23354 ft | 449 kts | 152° |
| 2026-05-07 20:51 | 26.41974 | -81.23841 | 22458 ft | 449 kts | 152° |
| 2026-05-07 20:51 | 26.39296 | -81.22047 | 21585 ft | 448 kts | 152° |
| 2026-05-07 20:51 | 26.36622 | -81.20258 | 20604 ft | 449 kts | 151° |
| 2026-05-07 20:52 | 26.33930 | -81.18456 | 19542 ft | 453 kts | 151° |
| 2026-05-07 20:52 | 26.31229 | -81.16647 | 18523 ft | 454 kts | 150° |
| 2026-05-07 20:52 | 26.28514 | -81.14829 | 17398 ft | 454 kts | 150° |
| 2026-05-07 20:52 | 26.25805 | -81.13018 | 16272 ft | 453 kts | 150° |
| 2026-05-07 20:53 | 26.23111 | -81.11218 | 15207 ft | 450 kts | 150° |
| 2026-05-07 20:53 | 26.20439 | -81.09434 | 14162 ft | 446 kts | 150° |
| 2026-05-07 20:53 | 26.17787 | -81.07665 | 13049 ft | 442 kts | 149° |
| 2026-05-07 20:53 | 26.15164 | -81.05913 | 11937 ft | 437 kts | 149° |
| 2026-05-07 20:54 | 26.12583 | -81.04193 | 11185 ft | 425 kts | 149° |
| 2026-05-07 20:54 | 26.10165 | -81.02581 | 10987 ft | 382 kts | 149° |
| 2026-05-07 20:54 | 26.08070 | -81.01184 | 10978 ft | 329 kts | 149° |
| 2026-05-07 20:54 | 26.06156 | -80.99911 | 10914 ft | 315 kts | 149° |
| 2026-05-07 20:55 | 26.04247 | -80.98642 | 10683 ft | 318 kts | 149° |
| 2026-05-07 20:55 | 26.02386 | -80.97403 | 10434 ft | 303 kts | 149° |
| 2026-05-07 20:55 | 26.00677 | -80.96182 | 10179 ft | 282 kts | 137° |
| 2026-05-07 20:55 | 25.99485 | -80.94452 | 9976 ft | 285 kts | 122° |
| 2026-05-07 20:56 | 25.98498 | -80.92572 | 9591 ft | 278 kts | 119° |
| 2026-05-07 20:56 | 25.97547 | -80.90760 | 9216 ft | 263 kts | 123° |
| 2026-05-07 20:56 | 25.96572 | -80.89114 | 8855 ft | 246 kts | 124° |
| 2026-05-07 20:56 | 25.95652 | -80.87597 | 8452 ft | 233 kts | 124° |
| 2026-05-07 20:57 | 25.94760 | -80.86089 | 8025 ft | 233 kts | 123° |
| 2026-05-07 20:57 | 25.93884 | -80.84592 | 7604 ft | 230 kts | 123° |
| 2026-05-07 20:57 | 25.93011 | -80.83108 | 7178 ft | 229 kts | 123° |
| 2026-05-07 20:57 | 25.92140 | -80.81631 | 6762 ft | 228 kts | 123° |
| 2026-05-07 20:58 | 25.91275 | -80.80164 | 6347 ft | 226 kts | 123° |
| 2026-05-07 20:58 | 25.90412 | -80.78700 | 5901 ft | 226 kts | 124° |
| 2026-05-07 20:58 | 25.89551 | -80.77242 | 5464 ft | 226 kts | 124° |
| 2026-05-07 20:58 | 25.88692 | -80.75779 | 5033 ft | 225 kts | 124° |
| 2026-05-07 20:59 | 25.87845 | -80.74353 | 4598 ft | 223 kts | 125° |
| 2026-05-07 20:59 | 25.86993 | -80.72910 | 4158 ft | 224 kts | 124° |
| 2026-05-07 20:59 | 25.86148 | -80.71472 | 4004 ft | 218 kts | 124° |
| 2026-05-07 20:59 | 25.85306 | -80.70052 | 4002 ft | 221 kts | 124° |
| 2026-05-07 21:00 | 25.84454 | -80.68611 | 4008 ft | 224 kts | 124° |
| 2026-05-07 21:00 | 25.83606 | -80.67165 | 3997 ft | 225 kts | 124° |
| 2026-05-07 21:00 | 25.82748 | -80.65716 | 3998 ft | 222 kts | 124° |
| 2026-05-07 21:00 | 25.81882 | -80.64267 | 3996 ft | 225 kts | 124° |
| 2026-05-07 21:01 | 25.81029 | -80.62818 | 4001 ft | 229 kts | 124° |
| 2026-05-07 21:01 | 25.80167 | -80.61360 | 3996 ft | 223 kts | 124° |
| 2026-05-07 21:01 | 25.79305 | -80.59903 | 3987 ft | 225 kts | 124° |
| 2026-05-07 21:01 | 25.78446 | -80.58453 | 3992 ft | 226 kts | 124° |
| 2026-05-07 21:02 | 25.77667 | -80.56947 | 3980 ft | 225 kts | 107° |
| 2026-05-07 21:02 | 25.77569 | -80.55214 | 3989 ft | 228 kts | 86° |
| 2026-05-07 21:02 | 25.77681 | -80.53445 | 3730 ft | 228 kts | 84° |
| 2026-05-07 21:02 | 25.77787 | -80.51737 | 3448 ft | 216 kts | 87° |
| 2026-05-07 21:03 | 25.77861 | -80.50102 | 3168 ft | 206 kts | 87° |
| 2026-05-07 21:03 | 25.77916 | -80.48575 | 2901 ft | 191 kts | 87° |
| 2026-05-07 21:03 | 25.77970 | -80.47169 | 2642 ft | 173 kts | 89° |
| 2026-05-07 21:03 | 25.78025 | -80.45911 | 2469 ft | 154 kts | 88° |
| 2026-05-07 21:04 | 25.78070 | -80.44722 | 2325 ft | 154 kts | 88° |
| 2026-05-07 21:04 | 25.78128 | -80.43553 | 2175 ft | 153 kts | 88° |
| 2026-05-07 21:04 | 25.78153 | -80.42407 | 1983 ft | 147 kts | 89° |
| 2026-05-07 21:04 | 25.78224 | -80.41246 | 1818 ft | 151 kts | 88° |
| 2026-05-07 21:05 | 25.78255 | -80.40115 | 1611 ft | 147 kts | 89° |
| 2026-05-07 21:05 | 25.78299 | -80.38983 | 1410 ft | 147 kts | 89° |
| 2026-05-07 21:05 | 25.78348 | -80.37855 | 1219 ft | 145 kts | 90° |
| 2026-05-07 21:05 | 25.78389 | -80.36744 | 1021 ft | 144 kts | 89° |
| 2026-05-07 21:06 | 25.78450 | -80.35649 | 851 ft | 137 kts | 91° |
| 2026-05-07 21:06 | 25.78474 | -80.34601 | 670 ft | 134 kts | 89° |
| 2026-05-07 21:06 | 25.78535 | -80.33566 | 485 ft | 139 kts | 92° |
| 2026-05-07 21:06 | 25.78565 | -80.32465 | 308 ft | 141 kts | 89° |
| 2026-05-07 21:07 | 25.78633 | -80.31432 | 98 ft | 131 kts | 91° |
| 2026-05-07 21:07 | 25.78648 | -80.30570 | 18 ft | 77 kts | 89° |
| 2026-05-07 21:07 | 25.78667 | -80.30233 | 18 ft | 21 kts | 86° |
| 2026-05-07 21:07 | 25.78679 | -80.30035 | 15 ft | 33 kts | 86° |
| 2026-05-07 21:08 | 25.78734 | -80.29790 | 18 ft | 20 kts | 18° |
| 2026-05-07 21:08 | 25.78801 | -80.29674 | 18 ft | 30 kts | 83° |
| 2026-05-07 21:08 | 25.78810 | -80.29406 | 18 ft | 36 kts | 87° |
| 2026-05-07 21:08 | 25.78828 | -80.29128 | 18 ft | 36 kts | 84° |
| 2026-05-07 21:09 | 25.78858 | -80.28892 | 16 ft | 31 kts | 81° |
| 2026-05-07 21:09 | 25.78879 | -80.28657 | 15 ft | 24 kts | 76° |
| 2026-05-07 21:09 | 25.79004 | -80.28528 | 17 ft | 30 kts | 30° |
| 2026-05-07 21:09 | 25.79192 | -80.28417 | 18 ft | 28 kts | 6° |
| 2026-05-07 21:10 | 25.79321 | -80.28542 | 18 ft | 30 kts | 330° |
| 2026-05-07 21:10 | 25.79544 | -80.28583 | 19 ft | 29 kts | 4° |
| 2026-05-07 21:10 | 25.79669 | -80.28496 | 19 ft | 19 kts | 7° |
| 2026-05-07 21:10 | 25.79714 | -80.28491 | 19 ft | 0 kts | 5° |